Sunday, December 17, 2017, 2:31 PM EST
Back to Local

KABE, Lehigh Valley International Airport

Location: Allentown, PA, United States Lat: 40.65
Local Time: 2:31 PM EST (19:31 GMT) Lon: -75.45
Time Zone: US/Eastern Elev: 393 ft

Show me the last for .
Show Coded

Time T Td Feel RH Dir Speed Gust Alt SLP Vis Weather Sky Remarks
2017-12-17 13:51 36 24 32 61 350° 5 - 30.21 30.22 10 CLR None
2017-12-17 12:51 35 24 32 63 360° 3 - 30.23 30.24 10 CLR 6-hr Min Temp (1pm): 30.0°F
6-hr Max Temp (1pm): 36.0°F
2017-12-17 11:51 36 23 33 58 30° 3 - 30.26 30.27 10 CLR None
2017-12-17 10:51 34 24 30 66 40° 5 - 30.28 30.29 10 CLR None
2017-12-17 09:51 32 23 26 68 40° 6 - 30.28 30.29 10 CLR None
2017-12-17 08:51 31 22 27 68 50° 3 - 30.27 30.28 10 FEW048 None
2017-12-17 07:51 31 22 27 68 70° 3 - 30.27 30.27 10 OVC048 None
2017-12-17 06:51 32 22 26 65 50° 6 - 30.25 30.26 10 OVC050 6-hr Min Temp (7am): 30.9°F
6-hr Max Temp (7am): 35.1°F
2017-12-17 05:51 31 23 26 72 70° 5 - 30.23 30.24 10 OVC050 None
2017-12-17 04:51 32 24 26 72 60° 6 - 30.22 30.23 10 OVC050 None
2017-12-17 03:51 32 24 26 72 60° 6 - 30.23 30.24 10 OVC055 None
2017-12-17 02:51 33 25 - 71 - Calm - 30.23 30.24 10 OVC050 None
2017-12-17 01:51 33 25 30 71 60° 3 - 30.21 30.22 10 FEW033 OVC055 None
2017-12-17 00:51 35 24 32 63 110° 3 - 30.19 30.20 10 BKN050 OVC075 6-hr Min Temp (1am): 34.0°F
6-hr Max Temp (1am): 39.9°F
2017-12-16 23:51 35 25 31 66 100° 5 - 30.19 30.20 10 FEW035 BKN049 OVC055 24-hr Min Temp (12am): 14.0°F
24-hr Max Temp (12am): 39.9°F
2017-12-16 22:51 35 25 29 66 70° 7 - 30.17 30.18 10 OVC047 None
2017-12-16 21:51 37 27 32 66 20° 7 - 30.16 30.17 10 OVC034 None
2017-12-16 20:51 38 27 34 64 270° 5 - 30.13 30.14 10 OVC041 None
2017-12-16 19:51 38 26 33 61 260° 6 - 30.12 30.13 10 OVC055 None
2017-12-16 18:51 37 26 32 64 250° 6 - 30.09 30.11 10 FEW049 OVC060 6-hr Min Temp (7pm): 35.1°F
6-hr Max Temp (7pm): 37.9°F
2017-12-16 17:51 38 25 33 59 260° 6 - 30.07 30.08 10 BKN050 OVC065 None
2017-12-16 16:51 37 26 31 64 250° 8 - 30.03 30.04 10 OVC049 None
2017-12-16 15:51 37 25 31 61 240° 8 - 30.01 30.02 10 OVC050 None
2017-12-16 14:51 37 25 30 61 240° 10 - 30.00 30.01 10 OVC045 None

Support USWX by starting your Amazon purchase here.